Time;durP1;ratioP1;P1;durP2;ratioP2;P2;SDS_P1;SDS_P2;PMS_P1;PMS_P2;Temp;Humidity;BMP_temperature;BMP_pressure;BME280_temperature;BME280_humidity;BME280_pressure;Samples;Min_cycle;Max_cycle;Signal;HPM_P1;HPM_P2
2022/07/29 00:01:00;;;;;;;0.00;0.00;;;25.30;41.10;;;;;;5074202;28;20037;-75
2022/07/29 00:03:26;;;;;;;0.00;0.00;;;25.20;41.00;;;;;;5092604;28;20479;-75
2022/07/29 00:05:52;;;;;;;0.00;0.00;;;25.00;41.40;;;;;;5086767;28;20025;-75
2022/07/29 00:08:19;;;;;;;0.00;0.00;;;25.20;41.50;;;;;;5092003;28;20028;-75
2022/07/29 00:10:45;;;;;;;0.00;0.00;;;25.20;41.10;;;;;;5092383;28;20077;-75
2022/07/29 00:13:11;;;;;;;0.00;0.00;;;25.20;41.10;;;;;;5074150;28;20109;-75
2022/07/29 00:15:37;;;;;;;0.00;0.00;;;25.20;41.30;;;;;;5092372;28;20023;-75
2022/07/29 00:18:03;;;;;;;0.00;0.00;;;25.20;41.20;;;;;;5073903;28;20522;-75
2022/07/29 00:20:29;;;;;;;0.10;0.10;;;25.20;41.50;;;;;;5092144;28;20452;-75
2022/07/29 00:22:55;;;;;;;0.00;0.00;;;25.20;41.60;;;;;;5074025;28;20016;-75
2022/07/29 00:25:21;;;;;;;0.00;0.00;;;25.30;41.40;;;;;;5092060;28;20024;-75
2022/07/29 00:27:47;;;;;;;0.00;0.00;;;25.40;41.40;;;;;;5092352;28;20040;-75
2022/07/29 00:30:13;;;;;;;0.00;0.00;;;25.40;41.70;;;;;;5092264;28;20062;-75
2022/07/29 00:32:40;;;;;;;0.00;0.00;;;25.50;41.50;;;;;;5092294;28;20028;-75
2022/07/29 00:37:51;;;;;;;0.00;0.00;;;25.60;41.50;;;;;;5085425;28;20380;-75
2022/07/29 00:40:17;;;;;;;0.00;0.00;;;25.70;41.40;;;;;;5086319;28;20425;-75
2022/07/29 00:42:48;;;;;;;0.00;0.00;;;25.80;42.10;;;;;;5083777;28;20058;-75
2022/07/29 00:45:15;;;;;;;0.00;0.00;;;25.90;41.60;;;;;;5082865;28;20051;-75
2022/07/29 00:47:41;;;;;;;0.00;0.00;;;26.00;41.40;;;;;;5066028;28;20025;-76
2022/07/29 00:50:10;;;;;;;0.00;0.00;;;26.20;42.00;;;;;;5084724;28;20024;-77
2022/07/29 00:52:38;;;;;;;0.10;0.00;;;26.60;41.00;;;;;;5090400;28;20027;-76
2022/07/29 00:55:07;;;;;;;0.00;0.00;;;26.90;41.10;;;;;;5083506;28;20066;-75
2022/07/29 00:57:34;;;;;;;0.00;0.00;;;27.30;40.50;;;;;;5098300;28;20543;-75
2022/07/29 01:00:00;;;;;;;0.00;0.00;;;27.60;39.70;;;;;;5092411;28;20021;-75
2022/07/29 01:02:26;;;;;;;0.00;0.00;;;28.00;39.90;;;;;;5076894;28;20029;-76
2022/07/29 01:04:53;;;;;;;0.00;0.00;;;28.30;38.40;;;;;;5090811;28;20052;-76
2022/07/29 01:07:19;;;;;;;0.00;0.00;;;28.60;38.80;;;;;;5091417;28;20153;-77
2022/07/29 01:09:47;;;;;;;0.00;0.00;;;28.90;37.90;;;;;;5088720;28;20077;-75
2022/07/29 01:12:19;;;;;;;0.00;0.00;;;29.30;37.20;;;;;;5079851;28;20025;-76
2022/07/29 01:14:47;;;;;;;0.00;0.00;;;29.70;37.10;;;;;;5093739;28;20027;-76
2022/07/29 01:18:14;;;;;;;0.00;0.00;;;30.40;36.10;;;;;;5097306;28;20484;-76
2022/07/29 01:21:02;;;;;;;1.33;0.32;;;30.70;35.10;;;;;;5040036;28;20040;-76
2022/07/29 01:23:46;;;;;;;0.00;0.00;;;30.90;34.50;;;;;;5087248;28;20031;-76
2022/07/29 01:26:33;;;;;;;0.00;0.00;;;30.90;35.30;;;;;;5088096;28;20020;-76
2022/07/29 01:28:59;;;;;;;0.00;0.00;;;31.10;34.60;;;;;;5094732;28;20169;-76
2022/07/29 01:32:04;;;;;;;0.00;0.00;;;31.20;34.30;;;;;;5091672;28;20536;-76
2022/07/29 01:34:50;;;;;;;0.00;0.00;;;31.30;34.20;;;;;;5094130;28;20016;-76
2022/07/29 01:37:42;;;;;;;0.20;0.20;;;31.30;34.40;;;;;;5076572;28;20031;-76
2022/07/29 01:40:27;;;;;;;0.00;0.00;;;31.50;34.00;;;;;;5074775;28;20408;-75
2022/07/29 01:42:56;;;;;;;0.00;0.00;;;31.50;34.20;;;;;;5084589;28;20024;-76
2022/07/29 01:45:40;;;;;;;0.00;0.00;;;31.60;34.10;;;;;;5090385;28;20024;-78
2022/07/29 01:48:16;;;;;;;0.00;0.00;;;31.60;33.70;;;;;;5097421;28;20116;-78
2022/07/29 01:51:04;;;;;;;5.32;5.13;;;31.70;34.10;;;;;;5093011;28;20061;-78
2022/07/29 01:53:35;;;;;;;0.00;0.00;;;31.90;33.40;;;;;;5067304;28;20048;-79
2022/07/29 01:56:03;;;;;;;0.00;0.00;;;31.70;33.90;;;;;;5066938;28;20025;-79
2022/07/29 01:58:31;;;;;;;0.00;0.00;;;31.90;34.10;;;;;;5069392;28;20040;-79
2022/07/29 02:00:59;;;;;;;0.00;0.00;;;31.90;33.30;;;;;;5076331;28;20032;-79
2022/07/29 02:03:27;;;;;;;0.00;0.00;;;32.00;33.40;;;;;;5086884;28;20099;-78
2022/07/29 02:05:55;;;;;;;0.00;0.00;;;32.10;33.30;;;;;;5075910;28;20020;-79
2022/07/29 02:08:23;;;;;;;0.00;0.00;;;32.40;32.80;;;;;;5076419;28;20024;-79
2022/07/29 02:10:50;;;;;;;0.00;0.00;;;32.70;32.30;;;;;;5063828;28;20020;-78
2022/07/29 02:13:18;;;;;;;0.00;0.00;;;33.10;32.00;;;;;;5066240;28;20032;-79
2022/07/29 02:15:44;;;;;;;0.00;0.00;;;33.90;31.70;;;;;;5072716;28;20023;-79
2022/07/29 02:18:17;;;;;;;0.00;0.00;;;34.00;31.30;;;;;;5100900;28;20096;-77
2022/07/29 02:20:52;;;;;;;0.00;0.00;;;34.30;31.20;;;;;;5079871;28;20028;-79
2022/07/29 02:23:24;;;;;;;0.00;0.00;;;34.40;31.20;;;;;;5082129;28;20044;-80
2022/07/29 02:25:53;;;;;;;0.63;0.47;;;34.70;30.80;;;;;;5082861;28;20668;-78
2022/07/29 02:28:21;;;;;;;0.00;0.00;;;35.10;30.00;;;;;;5086362;28;20085;-79
2022/07/29 02:30:49;;;;;;;0.03;0.03;;;35.10;29.90;;;;;;5089262;28;20020;-79
2022/07/29 02:33:18;;;;;;;0.00;0.00;;;35.00;29.90;;;;;;5090344;28;20050;-79
2022/07/29 02:35:46;;;;;;;0.00;0.00;;;35.30;30.00;;;;;;5064411;28;20021;-79
2022/07/29 02:41:07;;;;;;;0.00;0.00;;;33.80;30.60;;;;;;5082499;28;20434;-80
2022/07/29 02:43:35;;;;;;;0.15;0.15;;;33.80;31.90;;;;;;5084735;28;20017;-80
2022/07/29 02:46:05;;;;;;;42.00;28.58;;;34.10;30.80;;;;;;5080997;28;20023;-83
2022/07/29 02:48:41;;;;;;;0.30;0.20;;;34.40;30.80;;;;;;5063844;28;20046;-81
2022/07/29 02:51:17;;;;;;;0.22;0.22;;;33.20;32.20;;;;;;5068245;28;20047;-77
2022/07/29 02:53:47;;;;;;;0.10;0.10;;;34.10;31.70;;;;;;5081976;28;20052;-77
2022/07/29 02:56:16;;;;;;;0.17;0.17;;;33.90;31.40;;;;;;5091742;28;20048;-76
2022/07/29 02:58:49;;;;;;;0.00;0.00;;;34.10;31.40;;;;;;5089577;28;20089;-77
2022/07/29 03:01:20;;;;;;;0.00;0.00;;;34.50;31.00;;;;;;5082490;28;20095;-79
2022/07/29 03:03:48;;;;;;;0.00;0.00;;;33.80;31.70;;;;;;5063566;28;20468;-79
2022/07/29 03:06:17;;;;;;;0.45;0.20;;;34.50;31.40;;;;;;5079510;28;20493;-79
2022/07/29 03:08:44;;;;;;;0.00;0.00;;;35.20;30.20;;;;;;5076680;28;20027;-79
2022/07/29 03:11:11;;;;;;;0.00;0.00;;;35.70;30.00;;;;;;5089214;28;20020;-79
2022/07/29 03:13:38;;;;;;;0.00;0.00;;;35.90;29.20;;;;;;5078863;28;20039;-78
2022/07/29 03:16:05;;;;;;;0.00;0.00;;;36.10;29.50;;;;;;5080381;28;20488;-78
2022/07/29 03:18:32;;;;;;;0.00;0.00;;;36.30;29.40;;;;;;5089901;28;20571;-78
2022/07/29 03:20:59;;;;;;;0.00;0.00;;;36.50;28.90;;;;;;5087310;28;20025;-78
2022/07/29 03:23:27;;;;;;;0.00;0.00;;;36.50;29.00;;;;;;5080464;28;20037;-78
2022/07/29 03:25:54;;;;;;;0.00;0.00;;;35.60;29.60;;;;;;5070176;28;20020;-79
2022/07/29 03:28:21;;;;;;;0.00;0.00;;;35.40;30.30;;;;;;5065138;28;20032;-79
2022/07/29 03:30:47;;;;;;;0.00;0.00;;;36.10;29.50;;;;;;5090762;28;20032;-78
2022/07/29 03:33:13;;;;;;;0.00;0.00;;;36.40;29.40;;;;;;5064878;28;20032;-78
2022/07/29 03:35:40;;;;;;;0.00;0.00;;;36.60;28.80;;;;;;5086437;28;20114;-79
2022/07/29 03:38:06;;;;;;;9.52;2.63;;;36.70;28.70;;;;;;5091666;28;20103;-78
2022/07/29 03:40:38;;;;;;;0.75;0.75;;;36.60;28.60;;;;;;5089801;28;20035;-78
2022/07/29 03:43:07;;;;;;;0.00;0.00;;;36.10;29.30;;;;;;5083003;28;20036;-77
2022/07/29 03:45:34;;;;;;;0.00;0.00;;;34.00;31.70;;;;;;5085832;28;20426;-77
2022/07/29 03:48:05;;;;;;;0.00;0.00;;;33.00;32.70;;;;;;5064435;28;20036;-77
2022/07/29 03:50:36;;;;;;;0.40;0.40;;;33.20;32.50;;;;;;5068994;28;20176;-77
2022/07/29 03:53:03;;;;;;;0.03;0.03;;;32.60;33.40;;;;;;5085094;28;20028;-80
2022/07/29 03:55:33;;;;;;;0.00;0.00;;;32.20;34.10;;;;;;5066917;28;20062;-77
2022/07/29 03:58:01;;;;;;;0.00;0.00;;;31.20;35.70;;;;;;5088515;28;20063;-78
2022/07/29 04:00:29;;;;;;;7.95;3.85;;;31.40;35.80;;;;;;5089041;28;20078;-78
2022/07/29 04:02:57;;;;;;;0.00;0.00;;;30.90;36.00;;;;;;5084539;28;20138;-77
2022/07/29 04:05:23;;;;;;;0.10;0.10;;;31.00;36.40;;;;;;5086530;28;20157;-77
2022/07/29 04:07:49;;;;;;;0.10;0.10;;;30.30;37.00;;;;;;5083298;28;20115;-77
2022/07/29 04:10:16;;;;;;;0.10;0.00;;;30.10;37.70;;;;;;5082100;28;20039;-78
2022/07/29 04:12:43;;;;;;;0.00;0.00;;;30.20;37.40;;;;;;5064851;28;20151;-78
2022/07/29 04:15:09;;;;;;;0.00;0.00;;;30.50;36.90;;;;;;5086685;28;20082;-76
2022/07/29 04:17:35;;;;;;;4.30;0.08;;;30.80;36.20;;;;;;5085534;28;20115;-78
2022/07/29 04:20:01;;;;;;;0.00;0.00;;;30.30;37.10;;;;;;5066484;28;20095;-77
2022/07/29 04:22:27;;;;;;;0.00;0.00;;;30.20;37.80;;;;;;5082933;28;20094;-77
2022/07/29 04:24:53;;;;;;;0.00;0.00;;;30.40;37.40;;;;;;5108187;28;20031;-76
2022/07/29 04:27:19;;;;;;;0.40;0.40;;;30.40;37.30;;;;;;5093782;28;20032;-77
2022/07/29 04:29:47;;;;;;;0.00;0.00;;;29.80;38.20;;;;;;5088579;28;20175;-76
2022/07/29 04:32:13;;;;;;;0.20;0.20;;;29.30;38.20;;;;;;5083685;28;20039;-77
2022/07/29 04:34:39;;;;;;;0.00;0.00;;;29.10;39.00;;;;;;5085163;28;20063;-77
2022/07/29 04:37:05;;;;;;;0.20;0.03;;;29.50;38.50;;;;;;5080807;28;20086;-77
2022/07/29 04:39:31;;;;;;;0.00;0.00;;;29.60;38.60;;;;;;5066603;28;20020;-79
2022/07/29 04:41:57;;;;;;;0.00;0.00;;;29.30;38.40;;;;;;5061561;28;20111;-77
2022/07/29 04:44:24;;;;;;;0.00;0.00;;;29.40;38.50;;;;;;5059649;28;20079;-74
2022/07/29 04:46:50;;;;;;;0.00;0.00;;;29.70;38.10;;;;;;5065551;28;20070;-75
2022/07/29 04:49:16;;;;;;;0.40;0.40;;;29.70;39.10;;;;;;5083018;28;20102;-76
2022/07/29 04:51:42;;;;;;;0.03;0.03;;;29.90;38.20;;;;;;5079208;28;20031;-77
2022/07/29 04:54:08;;;;;;;0.10;0.08;;;30.10;37.90;;;;;;5092854;28;20120;-77
2022/07/29 04:56:34;;;;;;;0.00;0.00;;;30.00;38.10;;;;;;5087739;28;20054;-77
2022/07/29 04:59:00;;;;;;;0.00;0.00;;;29.80;37.90;;;;;;5061447;28;20075;-76
2022/07/29 05:01:26;;;;;;;0.52;0.30;;;29.80;38.20;;;;;;5061252;28;20027;-76
2022/07/29 05:03:52;;;;;;;0.00;0.00;;;29.80;38.60;;;;;;5083023;28;20027;-75
2022/07/29 05:06:18;;;;;;;0.57;0.57;;;29.40;38.40;;;;;;5085863;28;20446;-76
2022/07/29 05:08:44;;;;;;;0.00;0.00;;;29.60;38.60;;;;;;5087207;28;20032;-75
2022/07/29 05:11:10;;;;;;;0.20;0.20;;;29.80;39.10;;;;;;5100750;28;20020;-76
2022/07/29 05:13:36;;;;;;;0.10;0.10;;;29.80;39.40;;;;;;5085182;28;20039;-76
2022/07/29 05:16:02;;;;;;;0.70;0.70;;;30.00;39.00;;;;;;5087003;28;20028;-75
2022/07/29 05:18:28;;;;;;;0.00;0.00;;;30.20;37.90;;;;;;5067209;28;20036;-76
2022/07/29 05:20:54;;;;;;;0.00;0.00;;;30.30;38.10;;;;;;5092288;28;20050;-74
2022/07/29 05:23:20;;;;;;;0.00;0.00;;;30.50;38.40;;;;;;5093767;28;20024;-76
2022/07/29 05:25:46;;;;;;;0.00;0.00;;;30.50;38.00;;;;;;5089101;28;20115;-75
2022/07/29 05:28:12;;;;;;;0.00;0.00;;;30.60;37.40;;;;;;5095088;28;20055;-75
2022/07/29 05:30:39;;;;;;;0.05;0.05;;;30.50;37.30;;;;;;5088051;28;20032;-75
2022/07/29 05:33:05;;;;;;;0.00;0.00;;;30.30;37.90;;;;;;5086807;28;20098;-76
2022/07/29 05:35:31;;;;;;;0.10;0.10;;;29.70;38.70;;;;;;5074647;28;20085;-77
2022/07/29 05:37:57;;;;;;;0.25;0.25;;;29.80;39.50;;;;;;5071890;28;20024;-77
2022/07/29 05:40:23;;;;;;;0.00;0.00;;;29.90;38.90;;;;;;5087815;28;20050;-76
2022/07/29 05:42:49;;;;;;;0.00;0.00;;;30.00;38.30;;;;;;5086982;28;20028;-76
2022/07/29 05:45:15;;;;;;;0.00;0.00;;;30.20;38.10;;;;;;5089525;28;20099;-75
2022/07/29 05:47:41;;;;;;;0.30;0.30;;;30.20;38.30;;;;;;5075353;28;20031;-75
2022/07/29 05:50:07;;;;;;;0.35;0.17;;;29.90;38.50;;;;;;5092327;28;20028;-76
2022/07/29 05:52:33;;;;;;;0.00;0.00;;;29.20;39.40;;;;;;5092143;28;20020;-76
2022/07/29 05:55:02;;;;;;;3.80;0.30;;;28.90;40.80;;;;;;5074236;28;20411;-76
2022/07/29 05:57:28;;;;;;;0.20;0.20;;;29.20;40.60;;;;;;5083765;28;20036;-76
2022/07/29 05:59:54;;;;;;;0.10;0.10;;;29.10;40.50;;;;;;5092091;28;20021;-75
2022/07/29 06:02:20;;;;;;;2.47;2.38;;;29.20;40.70;;;;;;5082721;28;21009;-75
2022/07/29 06:04:46;;;;;;;0.22;0.15;;;29.30;40.00;;;;;;5079086;28;20128;-76
2022/07/29 06:07:12;;;;;;;0.52;0.52;;;29.20;40.60;;;;;;5092931;28;20032;-75
2022/07/29 06:09:39;;;;;;;0.00;0.00;;;29.30;40.80;;;;;;5069220;28;20089;-75
2022/07/29 06:12:05;;;;;;;0.20;0.10;;;29.20;40.40;;;;;;5069112;28;20036;-75
2022/07/29 06:14:32;;;;;;;0.00;0.00;;;29.50;39.80;;;;;;5078002;28;20024;-77
2022/07/29 06:16:58;;;;;;;0.00;0.00;;;29.60;39.30;;;;;;5082041;28;20435;-75
2022/07/29 06:19:24;;;;;;;0.00;0.00;;;29.80;38.70;;;;;;5075786;28;20110;-76
2022/07/29 06:21:50;;;;;;;0.13;0.08;;;30.00;37.20;;;;;;5073565;28;20107;-75
2022/07/29 06:24:16;;;;;;;0.13;0.13;;;29.80;38.10;;;;;;5089701;28;20020;-76
2022/07/29 06:26:43;;;;;;;0.73;0.68;;;29.70;39.50;;;;;;5071592;28;20036;-75
2022/07/29 06:29:12;;;;;;;0.68;0.28;;;29.50;38.70;;;;;;5059462;28;20123;-76
2022/07/29 06:31:45;;;;;;;0.00;0.00;;;29.60;38.80;;;;;;5074998;28;20051;-77
2022/07/29 06:34:11;;;;;;;0.55;0.55;;;29.70;39.20;;;;;;5079444;28;20491;-77
2022/07/29 06:36:38;;;;;;;0.38;0.30;;;30.00;38.60;;;;;;5068040;28;20032;-77
2022/07/29 06:39:08;;;;;;;2.22;1.13;;;29.90;38.50;;;;;;5085048;28;20035;-78
2022/07/29 06:41:35;;;;;;;0.05;0.05;;;30.00;39.40;;;;;;5084210;28;20028;-77
2022/07/29 06:44:01;;;;;;;0.00;0.00;;;30.30;38.70;;;;;;5069214;28;20047;-78
2022/07/29 06:46:27;;;;;;;0.10;0.10;;;30.50;38.10;;;;;;5049188;28;20390;-76
2022/07/29 06:48:57;;;;;;;0.00;0.00;;;30.40;35.70;;;;;;5047692;28;20035;-74
2022/07/29 06:51:35;;;;;;;1.25;0.38;;;30.70;37.10;;;;;;5045875;28;20060;-79
2022/07/29 06:54:01;;;;;;;0.00;0.00;;;30.30;37.50;;;;;;5062692;28;20742;-77
2022/07/29 06:56:28;;;;;;;0.20;0.10;;;30.20;37.60;;;;;;5061921;28;20042;-79
2022/07/29 06:58:54;;;;;;;0.00;0.00;;;30.10;38.30;;;;;;5062845;28;20626;-75
2022/07/29 07:01:20;;;;;;;0.00;0.00;;;30.20;37.90;;;;;;5063621;28;20665;-78
2022/07/29 07:03:46;;;;;;;0.00;0.00;;;30.40;38.20;;;;;;5070181;28;20130;-78
2022/07/29 07:06:12;;;;;;;0.00;0.00;;;30.80;37.90;;;;;;5051917;28;20476;-77
2022/07/29 07:08:38;;;;;;;0.00;0.00;;;31.20;37.40;;;;;;5066356;28;20029;-78
2022/07/29 07:11:05;;;;;;;0.00;0.00;;;31.00;37.50;;;;;;5058099;28;20024;-78
2022/07/29 07:13:34;;;;;;;0.00;0.00;;;30.70;39.40;;;;;;5083692;28;20031;-78
2022/07/29 07:16:01;;;;;;;0.75;0.38;;;30.90;37.30;;;;;;5068611;28;20043;-76
2022/07/29 07:18:27;;;;;;;0.03;0.00;;;30.60;37.60;;;;;;5091037;28;20029;-76
2022/07/29 07:20:54;;;;;;;0.00;0.00;;;30.60;38.50;;;;;;5088536;28;20034;-77
2022/07/29 07:23:20;;;;;;;0.00;0.00;;;31.00;37.00;;;;;;5086305;28;20143;-77
2022/07/29 07:25:46;;;;;;;0.20;0.20;;;31.10;37.30;;;;;;5089921;28;20431;-78
2022/07/29 07:28:17;;;;;;;1.38;1.08;;;30.80;37.30;;;;;;5066663;28;20028;-78
2022/07/29 07:30:45;;;;;;;0.00;0.00;;;31.00;37.60;;;;;;5054560;28;20028;-77
2022/07/29 07:33:11;;;;;;;0.10;0.10;;;30.70;37.90;;;;;;5083050;28;20040;-77
2022/07/29 07:35:37;;;;;;;0.00;0.00;;;31.00;37.60;;;;;;5096663;28;20391;-78
2022/07/29 07:38:03;;;;;;;0.10;0.10;;;31.00;36.80;;;;;;5087948;28;20034;-77
2022/07/29 07:40:29;;;;;;;0.50;0.50;;;31.40;37.50;;;;;;5068835;28;20058;-79
2022/07/29 07:42:55;;;;;;;0.00;0.00;;;31.30;37.00;;;;;;5081857;28;20028;-76
2022/07/29 07:45:32;;;;;;;0.00;0.00;;;30.70;38.20;;;;;;5083768;28;20246;-76
2022/07/29 07:47:58;;;;;;;0.00;0.00;;;30.80;37.90;;;;;;5062510;28;20128;-78
2022/07/29 07:50:25;;;;;;;0.00;0.00;;;31.50;37.00;;;;;;5071668;28;20438;-79
2022/07/29 07:52:53;;;;;;;0.00;0.00;;;32.10;36.90;;;;;;5069788;28;20121;-76
2022/07/29 07:55:20;;;;;;;0.00;0.00;;;32.30;35.90;;;;;;5073922;28;20115;-78
2022/07/29 07:58:01;;;;;;;0.25;0.25;;;32.70;35.60;;;;;;5062898;28;20052;-76
2022/07/29 08:00:28;;;;;;;0.00;0.00;;;32.70;34.10;;;;;;5067256;28;20031;-76
2022/07/29 08:02:54;;;;;;;0.00;0.00;;;32.60;34.20;;;;;;5060810;28;20021;-76
2022/07/29 08:05:20;;;;;;;0.10;0.00;;;32.60;34.20;;;;;;5047937;28;20028;-74
2022/07/29 08:07:46;;;;;;;0.00;0.00;;;31.80;35.70;;;;;;5049714;28;20037;-75
2022/07/29 08:10:14;;;;;;;0.20;0.20;;;31.10;36.50;;;;;;5046376;28;20037;-76
2022/07/29 08:12:40;;;;;;;0.00;0.00;;;31.10;36.60;;;;;;5052157;28;20068;-77
2022/07/29 08:15:07;;;;;;;0.03;0.03;;;31.40;35.50;;;;;;5051445;28;20215;-75
2022/07/29 08:17:34;;;;;;;0.00;0.00;;;31.60;35.90;;;;;;5053994;28;20025;-75
2022/07/29 08:20:00;;;;;;;0.00;0.00;;;31.90;35.70;;;;;;5065247;28;20029;-78
2022/07/29 08:22:26;;;;;;;0.00;0.00;;;32.20;35.30;;;;;;5068668;28;21394;-79
2022/07/29 08:24:52;;;;;;;0.00;0.00;;;32.40;35.00;;;;;;5073141;28;20032;-79
2022/07/29 08:27:19;;;;;;;0.00;0.00;;;31.90;35.80;;;;;;5073775;28;20060;-80
2022/07/29 08:29:45;;;;;;;0.00;0.00;;;31.90;36.30;;;;;;5092663;28;20035;-79
2022/07/29 08:32:11;;;;;;;0.00;0.00;;;32.30;36.20;;;;;;5072684;28;20111;-79
2022/07/29 08:34:40;;;;;;;0.00;0.00;;;32.70;34.30;;;;;;5075604;28;20107;-78
2022/07/29 08:37:06;;;;;;;3.47;3.38;;;32.80;34.50;;;;;;5070139;28;20480;-76
2022/07/29 08:39:33;;;;;;;0.00;0.00;;;32.90;34.80;;;;;;5069827;28;20028;-81
2022/07/29 08:41:59;;;;;;;0.00;0.00;;;32.50;34.90;;;;;;5070066;28;20056;-84
2022/07/29 08:44:28;;;;;;;0.00;0.00;;;32.10;35.30;;;;;;5072066;28;20017;-82
2022/07/29 08:46:54;;;;;;;0.00;0.00;;;31.80;35.90;;;;;;5077708;28;20021;-78
2022/07/29 08:49:20;;;;;;;0.00;0.00;;;32.10;35.20;;;;;;5074809;28;20150;-77
2022/07/29 08:51:46;;;;;;;0.30;0.00;;;32.00;35.20;;;;;;5062583;28;20029;-82
2022/07/29 08:54:18;;;;;;;0.00;0.00;;;32.70;33.80;;;;;;5067358;28;20024;-83
2022/07/29 08:56:45;;;;;;;0.00;0.00;;;31.90;34.60;;;;;;5072572;28;20028;-82
2022/07/29 08:59:12;;;;;;;0.00;0.00;;;31.80;35.60;;;;;;5103905;28;20508;-79
2022/07/29 09:01:39;;;;;;;0.00;0.00;;;32.30;36.20;;;;;;5073305;28;20091;-80
2022/07/29 09:04:10;;;;;;;0.00;0.00;;;32.20;36.50;;;;;;5071282;28;20380;-78
2022/07/29 09:06:41;;;;;;;0.00;0.00;;;31.90;36.00;;;;;;5088789;28;20024;-77
2022/07/29 09:09:08;;;;;;;0.08;0.08;;;31.50;36.70;;;;;;5084895;28;20081;-78
2022/07/29 09:11:34;;;;;;;0.00;0.00;;;31.70;36.60;;;;;;5085510;28;20393;-81
2022/07/29 09:14:01;;;;;;;0.00;0.00;;;31.40;37.10;;;;;;5087877;28;20062;-81
2022/07/29 09:16:44;;;;;;;0.00;0.00;;;31.70;36.50;;;;;;5073650;28;20503;-82
2022/07/29 09:19:22;;;;;;;0.00;0.00;;;32.00;36.20;;;;;;5080884;28;20402;-83
2022/07/29 09:21:57;;;;;;;0.30;0.30;;;32.20;36.20;;;;;;5070193;28;20037;-80
2022/07/29 09:24:25;;;;;;;0.00;0.00;;;32.50;35.10;;;;;;5071911;28;20028;-80
2022/07/29 09:26:51;;;;;;;0.00;0.00;;;32.90;35.30;;;;;;5075883;28;20028;-84
2022/07/29 09:29:19;;;;;;;0.00;0.00;;;33.10;34.80;;;;;;5077727;28;20077;-80
2022/07/29 09:31:47;;;;;;;3.30;0.32;;;33.40;34.00;;;;;;5080903;28;20024;-83
2022/07/29 09:34:16;;;;;;;0.00;0.00;;;33.50;34.30;;;;;;5083009;28;20432;-83
2022/07/29 09:36:47;;;;;;;0.00;0.00;;;33.20;34.40;;;;;;5096335;28;20093;-83
2022/07/29 09:39:14;;;;;;;1.33;1.25;;;33.10;34.70;;;;;;5092478;28;20028;-81
2022/07/29 09:41:49;;;;;;;1.02;0.38;;;33.10;35.10;;;;;;5103272;28;20028;-80
2022/07/29 09:44:16;;;;;;;0.10;0.10;;;32.80;35.50;;;;;;5091104;28;20108;-83
2022/07/29 09:47:02;;;;;;;2.05;1.90;;;32.60;36.40;;;;;;5101395;28;20099;-79
2022/07/29 09:49:28;;;;;;;0.10;0.05;;;32.30;35.90;;;;;;5076343;28;20020;-80
2022/07/29 09:52:24;;;;;;;11.68;3.40;;;32.10;35.90;;;;;;5085786;28;20081;-79
2022/07/29 09:54:50;;;;;;;0.00;0.00;;;32.10;36.50;;;;;;5068896;28;20481;-82
2022/07/29 09:57:26;;;;;;;0.25;0.20;;;32.20;36.20;;;;;;5083947;28;20483;-80
2022/07/29 10:00:08;;;;;;;0.00;0.00;;;31.70;36.40;;;;;;5088842;28;20105;-81
2022/07/29 10:02:36;;;;;;;0.00;0.00;;;32.10;36.10;;;;;;5090463;28;20021;-80
2022/07/29 10:05:05;;;;;;;0.10;0.10;;;32.40;36.30;;;;;;5068995;28;20052;-81
2022/07/29 10:07:52;;;;;;;0.05;0.05;;;32.50;35.30;;;;;;5066768;28;20028;-83
2022/07/29 10:10:28;;;;;;;0.00;0.00;;;32.10;35.30;;;;;;5081186;28;20024;-83
2022/07/29 10:12:57;;;;;;;0.10;0.10;;;32.20;35.00;;;;;;5084248;28;20374;-82
2022/07/29 10:15:29;;;;;;;0.00;0.00;;;32.40;35.10;;;;;;5067192;28;20028;-84
2022/07/29 10:18:10;;;;;;;2.08;0.47;;;32.40;34.80;;;;;;5083166;28;20020;-81
2022/07/29 10:20:37;;;;;;;0.00;0.00;;;32.10;34.20;;;;;;5086543;28;20035;-79
2022/07/29 10:23:04;;;;;;;0.00;0.00;;;32.10;35.30;;;;;;5086464;28;20039;-80
2022/07/29 10:25:31;;;;;;;0.00;0.00;;;32.40;35.10;;;;;;5090097;28;20051;-79
2022/07/29 10:27:58;;;;;;;0.13;0.10;;;32.70;34.30;;;;;;5085685;28;20028;-80
2022/07/29 10:30:25;;;;;;;0.00;0.00;;;32.80;33.80;;;;;;5072690;28;20093;-80
2022/07/29 10:33:00;;;;;;;0.17;0.17;;;32.50;34.40;;;;;;5076982;28;20023;-80
2022/07/29 10:35:49;;;;;;;0.00;0.00;;;32.60;34.20;;;;;;5090068;28;20101;-80
2022/07/29 10:38:31;;;;;;;0.55;0.40;;;32.50;33.70;;;;;;5083020;28;20078;-80
2022/07/29 10:41:27;;;;;;;0.15;0.13;;;32.30;33.20;;;;;;5087329;28;20472;-77
2022/07/29 10:44:28;;;;;;;0.00;0.00;;;31.90;34.10;;;;;;5086689;28;20031;-78
2022/07/29 10:46:55;;;;;;;0.30;0.10;;;31.80;34.60;;;;;;5032526;28;20498;-79
2022/07/29 10:49:25;;;;;;;0.00;0.00;;;31.60;35.00;;;;;;5067718;28;20040;-78
2022/07/29 10:52:05;;;;;;;0.00;0.00;;;31.40;35.40;;;;;;5067436;28;20492;-76
2022/07/29 10:54:41;;;;;;;0.10;0.10;;;31.50;35.30;;;;;;5082466;28;20271;-79
2022/07/29 10:57:22;;;;;;;0.00;0.00;;;31.40;35.30;;;;;;5088007;28;20506;-79
2022/07/29 10:59:51;;;;;;;0.00;0.00;;;31.60;35.70;;;;;;5091435;28;20032;-78
2022/07/29 11:02:44;;;;;;;0.00;0.00;;;31.90;35.20;;;;;;5079961;28;20031;-77
2022/07/29 11:05:12;;;;;;;0.30;0.20;;;31.90;34.90;;;;;;5090706;28;20103;-78
2022/07/29 11:07:59;;;;;;;0.00;0.00;;;31.90;35.30;;;;;;5081247;28;20031;-78
2022/07/29 11:10:25;;;;;;;0.00;0.00;;;31.90;34.70;;;;;;5086232;28;20039;-77
2022/07/29 11:12:52;;;;;;;0.00;0.00;;;31.70;35.20;;;;;;5087215;28;20098;-77
2022/07/29 11:15:21;;;;;;;0.00;0.00;;;31.80;35.00;;;;;;5065308;28;20071;-78
2022/07/29 11:17:53;;;;;;;0.00;0.00;;;31.90;35.00;;;;;;5071573;28;20077;-78
2022/07/29 11:20:39;;;;;;;1.38;1.38;;;31.70;35.40;;;;;;5082867;28;20042;-79
2022/07/29 11:23:17;;;;;;;2.80;0.80;;;31.10;35.50;;;;;;5072243;28;20420;-79
2022/07/29 11:25:43;;;;;;;0.00;0.00;;;30.90;36.10;;;;;;5084858;28;20024;-80
2022/07/29 11:28:16;;;;;;;0.00;0.00;;;31.00;36.40;;;;;;5074306;28;20024;-80
2022/07/29 11:30:53;;;;;;;0.00;0.00;;;31.00;36.20;;;;;;5092396;28;20076;-79
2022/07/29 11:33:32;;;;;;;0.00;0.00;;;31.30;36.60;;;;;;5102234;28;20032;-78
2022/07/29 11:36:16;;;;;;;0.00;0.00;;;31.40;36.40;;;;;;5102285;28;20020;-79
2022/07/29 11:38:42;;;;;;;1.70;0.82;;;31.60;36.10;;;;;;5092852;28;20044;-79
2022/07/29 11:41:17;;;;;;;0.32;0.32;;;31.50;35.80;;;;;;5094316;28;20468;-79
2022/07/29 11:43:54;;;;;;;0.80;0.80;;;31.50;36.30;;;;;;5091164;28;20032;-79
2022/07/29 11:46:56;;;;;;;1.20;1.10;;;31.70;36.60;;;;;;5091144;28;20016;-79
2022/07/29 11:49:24;;;;;;;0.00;0.00;;;31.80;35.40;;;;;;5014043;28;20025;-78
2022/07/29 11:51:55;;;;;;;15.50;14.70;;;31.90;35.70;;;;;;5061540;28;20064;-78
2022/07/29 11:54:30;;;;;;;0.00;0.00;;;32.30;35.30;;;;;;5089252;28;20039;-79
2022/07/29 11:56:58;;;;;;;0.10;0.10;;;32.40;35.60;;;;;;5087157;28;20027;-78
2022/07/29 11:59:25;;;;;;;0.00;0.00;;;32.50;34.40;;;;;;5086525;28;20131;-77
2022/07/29 12:01:55;;;;;;;3.53;1.27;;;32.60;34.20;;;;;;5086624;28;20028;-77
2022/07/29 12:04:23;;;;;;;0.00;0.00;;;32.30;34.80;;;;;;5081127;28;20422;-76
2022/07/29 12:06:54;;;;;;;0.00;0.00;;;32.20;34.80;;;;;;5086645;28;20025;-78
2022/07/29 12:09:21;;;;;;;7.55;5.05;;;32.20;34.90;;;;;;5069667;28;20066;-79
2022/07/29 12:11:48;;;;;;;0.15;0.15;;;32.10;34.90;;;;;;5084146;28;20024;-79
2022/07/29 12:14:31;;;;;;;0.00;0.00;;;32.10;35.50;;;;;;5081473;28;20433;-78
2022/07/29 12:17:02;;;;;;;0.00;0.00;;;31.80;35.10;;;;;;5083095;28;20036;-79
2022/07/29 12:19:28;;;;;;;0.00;0.00;;;31.90;35.10;;;;;;5071741;28;20484;-80
2022/07/29 12:21:55;;;;;;;0.00;0.00;;;31.90;35.10;;;;;;5086974;28;20036;-79
2022/07/29 12:24:22;;;;;;;0.00;0.00;;;31.30;36.00;;;;;;5064670;28;20385;-80
2022/07/29 12:26:53;;;;;;;0.00;0.00;;;31.20;35.90;;;;;;5087047;28;20043;-81
2022/07/29 12:29:19;;;;;;;0.00;0.00;;;31.10;36.40;;;;;;5066464;28;20028;-80
2022/07/29 12:31:46;;;;;;;0.47;0.47;;;31.20;36.20;;;;;;5085319;28;20024;-79
2022/07/29 12:34:14;;;;;;;0.00;0.00;;;31.30;36.10;;;;;;5082809;28;20115;-77
2022/07/29 12:36:42;;;;;;;0.00;0.00;;;31.30;36.20;;;;;;5069065;28;20023;-78
2022/07/29 12:39:09;;;;;;;2.92;2.80;;;31.10;36.10;;;;;;5092643;28;20063;-80
2022/07/29 12:41:39;;;;;;;0.00;0.00;;;31.20;36.50;;;;;;5076231;28;20111;-80
2022/07/29 12:44:05;;;;;;;0.00;0.00;;;31.10;36.50;;;;;;5094604;28;20027;-80
2022/07/29 12:46:31;;;;;;;0.00;0.00;;;31.10;36.50;;;;;;5077197;28;20087;-78
2022/07/29 12:48:58;;;;;;;6.82;6.50;;;31.30;36.10;;;;;;5095341;28;20099;-79
2022/07/29 12:51:38;;;;;;;0.00;0.00;;;31.00;36.60;;;;;;5093274;28;20020;-78
2022/07/29 12:54:15;;;;;;;0.00;0.00;;;30.80;37.10;;;;;;5075843;28;20481;-78
2022/07/29 12:56:43;;;;;;;0.00;0.00;;;30.90;36.90;;;;;;5090379;28;20028;-79
2022/07/29 12:59:22;;;;;;;0.25;0.25;;;30.80;37.30;;;;;;5093889;28;20053;-77
2022/07/29 13:01:51;;;;;;;0.00;0.00;;;31.10;36.70;;;;;;5089544;28;20137;-78
2022/07/29 13:04:28;;;;;;;0.10;0.10;;;31.10;36.60;;;;;;5088099;28;20024;-79